Create Custom Reports and Graphics: Custom Report

Northern Napa County Map

Map

15 Minute Data

Southern Napa County Map

Map

15 Minute Data

Napa County - East

Latest Observations

15 Minute Data | America/Los_Angeles
as of 12/10/19 11:48 PM PST
Station Date Time Temp (°F) Dew Pt (°F) RH (%) Wind Dir (°) Wind Spd (mph) Wind Gust (mph) Latest Rain (In) Daily Rain (In) Daily Min Temp (°F) Daily Max Temp (°F)
Pope Valley - Weeks Lake 12/10/19 2345 48.9   3.7 48.8   3.7 100   0 ENE | 59 1.3   0.3 2.4   2.2 0.00   0.00 0.25   0.24 42.0   5.0 53.0   11.4
Dollarhide - STS 12/10/19 2100 49.1   4.9 49.0   4.9 100   0 NNW | 328 1.9   0.7 3.3   0.3 0.00   0.00 0.20   0.20 43.2   5.3 54.1   9.1
1AS Remote - STS 12/10/19 2100 48.3   7.1 48.4   7.1 100   0 WNW | 282 1.2   0.1 3.5   0.7 - - 42.8   6.3 52.3   11.4
17B Remote - STS 12/10/19 1430 53.0   10.6 48.6   3.0 85   20 - - - - - 46.8   6.9 54.1   10.8
18A Remote - STS 12/10/19 2100 48.4   8.0 48.4   8.1 100   0 - - - - - 43.1   6.2 53.4   11.4
Brown Estate-Lower Chiles Valley 12/10/19 2345 48.6   3.0 48.1   2.6 98   2 N | 6 0.5   2.2 1.8   2.3 0.00   0.00 0.22   0.22 44.4   12.1 53.4   6.7
Moss Creek Vineyard 12/10/19 2345 49.0   2.9 49.0   2.9 100   0 - - - 0.00   0.00 0.16   0.15 45.3   6.9 53.1   12.1
Max     49.0 49.0 100 - 1.3 2.4 0.00 0.25 45.3 53.4
Avg     48.8 48.6 99 - 0.9 2.1 0.00 - - -
Min     48.6 48.1 98 - 0.5 1.8 0.00 0.16 42.0 53.0

Napa County - Northern/Central

14 Stations

15 Minute Data | America/Los_Angeles
as of 12/10/19 11:48 PM PST
Station Date Time Temp (°F) RH (%) Dew Pt (°F) Wind Dir (°) Wind Spd (mph) Wind Gust (mph) Latest Rain (In) Daily Rain (In) Daily Min Temp (°F) Daily Max Temp (°F)
Calistoga 12/10/19 2345 49.7   1.9 96   1 48.8   1.6 - - - 0.00 0.27 45.3   5.4 54.6   0.1
St. Helena (TSH) 12/10/19 2200 50.0   0.7 97   4 49.2   1.7 W | 266 0.1   0.3 1.1   1.5 0.00 0.22 45.3   5.0 54.5   0.5
Rutherford Hill - Estate 12/10/19 2345 49.8   1.9 99   6 49.6   3.5 SE | 129 1.1   0.2 3.3   0.2 0.00 0.22 43.8   2.6 54.1   2.6
Mee Lane - MKV 12/10/19 2300 50.9   0.9 99   8 50.6   3.2 SSE | 160 1.7   0.2 3.9   0.9 0.00 0.17 45.8   6.0 56.4   4.5
Rutherford - STS 12/10/19 2345 51.1   1.3 100   5 51.1   2.6 SSE | 151 1.6   0.2 3.8   0.5 0.00 0.19 46.6   6.6 57.3   5.0
Skellenger 12/10/19 2000 50.8   0.2 96   4 49.7   1.0 N | 0 0.0   0.1 0.0   2.5 0.03 0.17 45.8   6.6 56.8   4.7
To Kalon 12/10/19 2345 50.8   1.1 99   8 50.5   3.4 S | 184 1.6   1.4 3.0   2.7 0.00 0.19 46.9   7.1 55.6   3.6
Wappo Hill 12/10/19 2345 51.3   0.9 100   11 51.3   3.9 SSW | 195 1.0   0.7 1.7   2.1 0.00 0.18 48.3   8.0 56.6   4.2
Stags Leap District - Chimney Rock 12/9/19 1300 49.8   12.5 99   34 49.4   0.9 SSE | 149 3.0   0.9 5.7   1.1 0.00 0.01 38.7   13.0 50.3   13.1
Napa River Ranch 12/10/19 2345 51.0   0.5 100   9 51.0   3.2 SSE | 158 0.9   0.0 3.0   0.4 0.00 0.16 47.9   8.3 55.9   3.8
Truoak 12/10/19 2345 51.1   0.5 100   8 51.1   2.7 SSE | 150 0.4   0.7 1.6   1.3 0.00 0.19 47.5   7.3 55.8   3.5
Hunter Ranch 53 12/10/19 2345 51.2   0.8 97   9 50.3   3.5 S | 174 0.5   0.9 1.5   3.0 0.00 0.14 47.1   7.3 55.4   3.1
Linda Vista 12/10/19 2345 51.2   0.9 98   9 50.6   3.6 SSW | 210 0.7   0.7 1.8   2.3 0.00 0.16 46.5   7.1 55.5   2.9
Napa River Vineyard, Ranch 29 12/10/19 2345 50.9   1.0 100   7 50.9   2.9 N | 0 0.0   0.3 0.0   1.1 0.00 0.13 47.1   6.5 56.2   4.2
Max     51.3 100 51.3 - 1.7 3.9 0.00 0.27 48.3 57.3
Avg     50.8 99 50.5 - 1.0 2.4 0.00 - - -
Min     49.7 96 48.8 - 0.0 0.0 0.00 0.13 43.8 54.1

Napa County - Southern

17 Stations

15 Minute Data | America/Los_Angeles
as of 12/10/19 11:48 PM PST
Station Date Time Temp (°F) RH (%) Dew Pt (°F) Wind Spd (mph) Wind Dir (°) Wind Gust (mph) Latest Rain (In) Daily Rain (In) Daily Min Temp (°F) Daily Max Temp (°F)
Mt. Veeder 12/10/19 2345 45.7   0.6 99   1 45.5   1.0 6.2   5.2 S | 170 9.6   8.1 0.00 0.22 42.9   0.7 50.0   6.4
Palmaz 300' 12/10/19 2345 50.6   1.8 100   6 50.5   3.5 1.1   2.2 WSW | 256 3.9   1.6 0.00 0.13 46.2   7.2 59.1   6.7
Palmaz 1200' 12/10/19 2345 48.1   3.8 99   1 47.8   3.5 3.6   1.2 E | 86 6.8   1.8 - - 43.2   3.5 50.7   2.8
Palmaz 1400' 12/10/19 2345 46.9   4.5 100   0 46.9   4.5 3.4   0.1 ESE | 107 5.8   1.4 0.00 0.17 41.9   2.2 49.2   8.0
Truchard Base 12/10/19 2345 50.8   1.0 100   8 50.8   3.2 1.5   0.4 ENE | 78 2.9   1.3 0.00 0.14 46.6   6.1 55.1   3.0
Truchard Remote 12/10/19 2345 51.1   0.7 98   10 50.7   3.4 - - - - - 47.1   8.2 55.7   3.0
Toyon Base (Napa South) 12/10/19 2315 51.2   1.1 97   5 50.4   2.4 0.0   0.1 N | 0 0.0   3.1 0.00 0.14 47.6   7.3 55.7   3.1
Toyon Remote 1 12/10/19 2300 51.1   0.3 - - - - - - - 47.7   8.9 56.0   3.2
Toyon Remote 2 12/10/19 2300 51.2   0.3 - - - - - - - 47.8   9.5 55.7   2.7
Toyon Remote 3 12/10/19 2300 51.1   0.2 - - - - - - - 47.5   8.8 56.2   3.2
Saintsbury Winery 11/26/19 1745 43.9   9.9 94   53 42.4   11.8 9.6   7.0 SE | 146 14.6   10.8 0.08 0.22 36.3   8.7 51.5   19.1
Napa-SE 12/10/19 2345 51.1   1.1 94   5 49.4   2.7 4.9   2.2 ESE | 103 8.8   3.5 0.00 0.13 44.7   4.2 56.0   4.1
Suscol Mtn 12/10/19 2345 48.4   2.9 100   0 48.4   2.9 8.2   5.0 E | 92 13.8   6.0 0.00 0.15 44.0   0.6 51.8   0.8
Napa-SE Upper 12/10/19 2345 49.9   2.3 97   1 49.0   2.5 4.5   0.8 ESE | 110 8.6   0.9 0.00 0.16 44.1   0.8 53.7   0.5
Stanly Ranch 45 12/10/19 2345 51.4   0.5 95   9 50.2   3.2 1.9   0.8 ENE | 67 4.2   0.7 0.00 0.15 47.4   6.0 56.1   2.8
Huichica Upper 12/10/19 2345 50.4   1.3 97   8 49.6   3.4 4.9   1.0 ENE | 59 6.8   1.2 - - 46.8   5.1 54.9   2.6
Huichica-Lower 12/10/19 2345 51.0   1.2 97   8 50.2   3.7 1.4   0.3 N | 5 3.4   0.1 0.00 0.18 47.7   7.0 55.1   2.7
Max     51.4 100 50.8 8.2 - 13.8 0.00 0.22 47.8 59.1
Avg     50.0 98 49.2 3.5 - 6.2 0.00 - - -
Min     45.7 94 45.5 0.0 - 0.0 0.00 0.13 41.9 49.2